createdAt,value
2019-06-26T00:02:02.374Z,8.30
2019-06-26T00:04:32.503Z,8.18
2019-06-26T00:07:02.551Z,8.43
2019-06-26T00:09:32.684Z,8.03
2019-06-26T00:12:07.201Z,8.40
2019-06-26T00:14:38.945Z,7.95
2019-06-26T00:17:09.191Z,8.83
2019-06-26T00:19:39.317Z,8.43
2019-06-26T00:22:09.381Z,8.45
2019-06-26T00:24:40.578Z,8.80
2019-06-26T00:27:10.567Z,8.28
2019-06-26T00:29:40.627Z,8.30
2019-06-26T00:32:11.086Z,8.23
2019-06-26T00:34:41.204Z,9.08
2019-06-26T00:37:11.333Z,8.25
2019-06-26T00:39:41.462Z,9.45
2019-06-26T00:42:11.652Z,8.00
2019-06-26T00:44:41.731Z,8.73
2019-06-26T00:47:11.691Z,8.43
2019-06-26T00:49:41.826Z,7.95
2019-06-26T00:52:13.266Z,8.75
2019-06-26T00:54:43.394Z,9.20
2019-06-26T00:57:13.511Z,9.10
2019-06-26T00:59:43.630Z,8.88
2019-06-26T01:02:13.611Z,8.95
2019-06-26T01:04:48.301Z,8.58
2019-06-26T01:07:18.424Z,9.33
2019-06-26T01:09:48.661Z,8.93
2019-06-26T01:12:18.789Z,9.25
2019-06-26T01:14:48.924Z,8.70
2019-06-26T01:17:19.053Z,8.48
2019-06-26T01:19:49.188Z,8.43
2019-06-26T01:22:19.246Z,8.50
2019-06-26T01:24:49.369Z,8.98
2019-06-26T01:27:19.565Z,9.43
2019-06-26T01:29:50.693Z,8.90
2019-06-26T01:32:20.823Z,8.75
2019-06-26T01:34:51.250Z,8.35
2019-06-26T01:37:21.448Z,9.00
2019-06-26T01:39:51.506Z,8.65
2019-06-26T01:42:21.568Z,9.10
2019-06-26T01:44:51.709Z,8.08
2019-06-26T01:47:21.759Z,8.78
2019-06-26T01:49:51.787Z,8.35
2019-06-26T01:52:21.989Z,9.20
2019-06-26T01:54:52.182Z,9.25
2019-06-26T01:57:22.179Z,9.30
2019-06-26T01:59:52.315Z,8.70
2019-06-26T02:02:24.044Z,8.83
2019-06-26T02:04:54.180Z,9.15
2019-06-26T02:07:24.228Z,9.05
2019-06-26T02:09:55.430Z,8.40
2019-06-26T02:12:25.482Z,9.38
2019-06-26T02:14:55.642Z,9.05
2019-06-26T02:17:25.837Z,8.83
2019-06-26T02:19:55.976Z,9.00
2019-06-26T02:22:25.962Z,8.33
2019-06-26T02:24:56.092Z,8.60
2019-06-26T02:27:26.229Z,9.23
2019-06-26T02:29:56.650Z,9.65
2019-06-26T02:32:26.717Z,10.13
2019-06-26T02:34:56.849Z,8.70
2019-06-26T02:37:26.909Z,9.33
2019-06-26T02:39:58.049Z,8.00
2019-06-26T02:42:28.281Z,8.58
2019-06-26T02:44:58.318Z,9.93
2019-06-26T02:47:28.686Z,9.43
2019-06-26T02:49:58.774Z,9.55
2019-06-26T02:52:28.809Z,9.45
2019-06-26T02:55:00.144Z,10.03
2019-06-26T02:57:30.196Z,9.88
2019-06-26T03:00:00.312Z,9.23
2019-06-26T03:02:30.453Z,9.85
2019-06-26T03:05:02.073Z,9.30
2019-06-26T03:07:32.385Z,9.53
2019-06-26T03:10:02.516Z,9.65
2019-06-26T03:12:32.569Z,9.45
2019-06-26T03:15:08.814Z,9.13
2019-06-26T03:17:35.057Z,9.63
2019-06-26T03:20:08.593Z,9.25
2019-06-26T03:22:57.945Z,9.98
2019-06-26T03:25:28.473Z,9.30
2019-06-26T03:27:58.541Z,9.58
2019-06-26T03:30:28.670Z,9.73
2019-06-26T03:32:58.738Z,9.40
2019-06-26T03:35:29.261Z,10.60
2019-06-26T03:37:59.334Z,8.50
2019-06-26T03:40:29.474Z,9.28
2019-06-26T03:42:59.925Z,9.15
2019-06-26T03:45:30.207Z,9.93
2019-06-26T03:48:00.339Z,9.13
2019-06-26T03:50:30.403Z,10.88
2019-06-26T03:53:02.067Z,9.55
2019-06-26T03:55:32.207Z,10.03
2019-06-26T03:58:02.341Z,9.20
2019-06-26T04:00:43.049Z,10.03
2019-06-26T04:03:13.596Z,11.08
2019-06-26T04:05:43.713Z,9.28
2019-06-26T04:08:13.933Z,10.15
2019-06-26T04:10:44.462Z,9.43
2019-06-26T04:13:14.534Z,9.58
2019-06-26T04:15:44.667Z,9.38
2019-06-26T04:18:14.741Z,9.55
2019-06-26T04:20:44.785Z,9.98
2019-06-26T04:23:14.904Z,10.23
2019-06-26T04:25:45.052Z,8.93
2019-06-26T04:28:15.132Z,10.65
2019-06-26T04:30:45.193Z,8.93
2019-06-26T04:33:15.245Z,8.73
2019-06-26T04:35:45.374Z,8.85
2019-06-26T04:38:15.665Z,8.50
2019-06-26T04:40:45.734Z,8.48
2019-06-26T04:43:15.785Z,9.05
2019-06-26T04:45:57.609Z,9.13
2019-06-26T04:48:17.608Z,8.03
2019-06-26T04:50:47.655Z,8.70
2019-06-26T04:53:17.721Z,8.18
2019-06-26T04:55:47.764Z,8.33
2019-06-26T04:58:18.157Z,9.30
2019-06-26T05:00:48.227Z,8.43
2019-06-26T05:03:18.419Z,8.43
2019-06-26T05:05:48.542Z,9.20
2019-06-26T05:08:18.674Z,8.65
2019-06-26T05:10:48.710Z,8.93
2019-06-26T05:13:18.840Z,9.18
2019-06-26T05:15:48.970Z,8.73
2019-06-26T05:18:20.157Z,7.80
2019-06-26T05:20:50.402Z,9.33
2019-06-26T05:23:20.697Z,8.68
2019-06-26T05:25:50.849Z,8.28
2019-06-26T05:28:20.907Z,8.68
2019-06-26T05:30:51.101Z,8.30
2019-06-26T05:33:22.604Z,8.55
2019-06-26T05:35:52.652Z,8.68
2019-06-26T05:38:22.784Z,8.90
2019-06-26T05:40:52.940Z,8.88
2019-06-26T05:43:23.045Z,8.80
2019-06-26T05:45:53.025Z,8.38
2019-06-26T05:48:23.091Z,9.65
2019-06-26T05:50:53.146Z,10.63
2019-06-26T05:53:23.218Z,10.45
2019-06-26T05:55:53.420Z,10.98
2019-06-26T05:58:23.556Z,9.65
2019-06-26T06:00:53.764Z,10.00
2019-06-26T06:03:23.826Z,10.25
2019-06-26T06:05:54.255Z,11.40
2019-06-26T06:08:24.236Z,10.80
2019-06-26T06:10:58.022Z,11.57
2019-06-26T06:13:26.068Z,10.93
2019-06-26T06:15:56.152Z,10.50
2019-06-26T06:18:26.338Z,10.80
2019-06-26T06:20:56.357Z,10.48
2019-06-26T06:23:27.498Z,10.45
2019-06-26T06:25:57.633Z,11.05
2019-06-26T06:28:27.640Z,10.80
2019-06-26T06:30:58.630Z,11.40
2019-06-26T06:33:28.766Z,11.33
2019-06-26T06:35:58.913Z,10.93
2019-06-26T06:38:28.982Z,10.78
2019-06-26T06:40:59.116Z,10.93
2019-06-26T06:43:29.193Z,10.75
2019-06-26T06:45:59.306Z,10.93
2019-06-26T06:48:29.318Z,10.55
2019-06-26T06:50:59.697Z,9.50
2019-06-26T06:53:29.916Z,9.63
2019-06-26T06:55:59.900Z,9.13
2019-06-26T06:58:30.343Z,8.70
2019-06-26T07:01:00.565Z,8.13
2019-06-26T07:03:30.617Z,7.80
2019-06-26T07:06:00.605Z,6.87
2019-06-26T07:08:30.646Z,7.15
2019-06-26T07:11:00.845Z,8.00
2019-06-26T07:13:30.989Z,7.80
2019-06-26T07:16:01.115Z,7.58
2019-06-26T07:18:31.323Z,7.42
2019-06-26T07:21:01.444Z,8.48
2019-06-26T07:23:31.575Z,8.28
2019-06-26T07:26:01.627Z,7.67
2019-06-26T07:28:32.009Z,8.25
2019-06-26T07:31:03.145Z,8.70
2019-06-26T07:33:33.348Z,8.55
2019-06-26T07:36:03.704Z,9.18
2019-06-26T07:38:33.784Z,8.18
2019-06-26T07:41:03.928Z,8.63
2019-06-26T07:43:33.999Z,8.60
2019-06-26T07:46:04.385Z,8.88
2019-06-26T07:48:34.587Z,9.10
2019-06-26T07:51:04.646Z,8.60
2019-06-26T07:53:34.696Z,8.35
2019-06-26T07:56:04.900Z,8.70
2019-06-26T07:58:34.953Z,8.90
2019-06-26T08:01:05.143Z,9.03
2019-06-26T08:03:35.260Z,8.80
2019-06-26T08:06:05.388Z,8.33
2019-06-26T08:08:36.879Z,9.05
2019-06-26T08:11:07.103Z,8.13
2019-06-26T08:13:37.200Z,9.23
2019-06-26T08:16:07.257Z,8.43
2019-06-26T08:18:37.321Z,10.90
2019-06-26T08:21:12.462Z,9.25
2019-06-26T08:23:39.053Z,9.73
2019-06-26T08:26:09.114Z,9.50
2019-06-26T08:28:39.497Z,8.93
2019-06-26T08:31:09.814Z,9.73
2019-06-26T08:33:39.959Z,9.88
2019-06-26T08:36:10.031Z,9.38
2019-06-26T08:38:40.488Z,9.48
2019-06-26T08:41:10.536Z,9.33
2019-06-26T08:43:40.564Z,9.03
2019-06-26T08:46:10.602Z,9.28
2019-06-26T08:48:40.915Z,9.70
2019-06-26T08:51:11.110Z,9.65
2019-06-26T08:53:41.173Z,9.53
2019-06-26T08:56:11.173Z,10.40
2019-06-26T08:58:42.517Z,9.55
2019-06-26T09:01:12.578Z,8.93
2019-06-26T09:03:43.027Z,10.38
2019-06-26T09:06:13.015Z,9.78
2019-06-26T09:08:43.005Z,9.60
2019-06-26T09:11:13.051Z,9.00
2019-06-26T09:13:43.496Z,9.23
2019-06-26T09:16:13.843Z,9.10
2019-06-26T09:18:43.932Z,9.45
2019-06-26T09:21:13.989Z,9.25
2019-06-26T09:23:44.160Z,9.68
2019-06-26T09:26:14.288Z,9.25
2019-06-26T09:28:44.412Z,9.45
2019-06-26T09:31:14.484Z,9.80
2019-06-26T09:33:44.474Z,9.88
2019-06-26T09:36:14.615Z,9.53
2019-06-26T09:38:44.727Z,9.60
2019-06-26T09:41:14.804Z,9.58
2019-06-26T09:43:44.946Z,9.43
2019-06-26T09:46:15.259Z,9.43
2019-06-26T09:48:52.526Z,9.00
2019-06-26T09:51:17.193Z,9.30
2019-06-26T09:53:48.066Z,9.58
2019-06-26T09:56:18.274Z,8.95
2019-06-26T09:58:48.244Z,9.18
2019-06-26T10:01:18.319Z,9.80
2019-06-26T10:03:48.372Z,10.13
2019-06-26T10:06:18.519Z,9.88
2019-06-26T10:08:48.585Z,9.80
2019-06-26T10:11:18.692Z,9.83
2019-06-26T10:13:48.790Z,10.03
2019-06-26T10:16:19.165Z,9.85
2019-06-26T10:18:49.295Z,9.95
2019-06-26T10:21:23.407Z,10.32
2019-06-26T10:23:51.037Z,9.48
2019-06-26T10:26:21.153Z,9.70
2019-06-26T10:28:51.186Z,10.28
2019-06-26T10:31:21.260Z,9.38
2019-06-26T10:33:51.329Z,9.98
2019-06-26T10:36:24.485Z,8.65
2019-06-26T10:38:53.198Z,9.33
2019-06-26T10:41:23.254Z,9.60
2019-06-26T10:43:53.299Z,8.70
2019-06-26T10:46:23.352Z,9.65
2019-06-26T10:48:53.467Z,8.88
2019-06-26T10:51:23.611Z,9.35
2019-06-26T10:53:53.742Z,9.70
2019-06-26T10:56:23.896Z,9.63
2019-06-26T10:58:54.369Z,9.00
2019-06-26T11:01:24.515Z,9.25
2019-06-26T11:03:54.721Z,9.20
2019-06-26T11:06:24.854Z,9.80
2019-06-26T11:08:54.985Z,9.60
2019-06-26T11:11:25.156Z,11.33
2019-06-26T11:13:55.282Z,9.58
2019-06-26T11:16:25.787Z,9.60
2019-06-26T11:18:55.843Z,10.72
2019-06-26T11:21:26.171Z,10.58
2019-06-26T11:23:56.382Z,12.43
2019-06-26T11:26:26.546Z,10.03
2019-06-26T11:28:57.034Z,10.20
2019-06-26T11:31:27.171Z,10.70
2019-06-26T11:33:57.301Z,10.95
2019-06-26T11:36:27.364Z,11.50
2019-06-26T11:38:57.438Z,9.85
2019-06-26T11:41:29.273Z,10.63
2019-06-26T11:43:59.408Z,9.85
2019-06-26T11:46:29.567Z,10.32
2019-06-26T11:48:59.700Z,11.35
2019-06-26T11:51:29.763Z,9.93
2019-06-26T11:53:59.830Z,11.40
2019-06-26T11:56:29.908Z,9.93
2019-06-26T11:59:00.205Z,10.58
2019-06-26T12:01:30.213Z,10.53
2019-06-26T12:04:00.283Z,11.88
2019-06-26T12:06:30.356Z,10.25
2019-06-26T12:09:00.483Z,10.72
2019-06-26T12:11:30.629Z,10.23
2019-06-26T12:14:01.208Z,10.95
2019-06-26T12:16:31.359Z,11.57
2019-06-26T12:19:02.407Z,10.68
2019-06-26T12:21:32.561Z,11.18
2019-06-26T12:24:03.826Z,10.50
2019-06-26T12:26:33.858Z,10.45
2019-06-26T12:29:04.348Z,10.32
2019-06-26T12:31:34.465Z,10.85
2019-06-26T12:34:04.606Z,10.23
2019-06-26T12:36:34.731Z,10.23
2019-06-26T12:39:07.323Z,11.70
2019-06-26T12:41:37.394Z,11.35
2019-06-26T12:44:10.561Z,11.28
2019-06-26T12:46:40.947Z,10.58
2019-06-26T12:49:10.892Z,11.48
2019-06-26T12:51:42.107Z,10.30
2019-06-26T12:54:12.213Z,11.83
2019-06-26T12:56:42.305Z,11.20
2019-06-26T12:59:12.395Z,10.75
2019-06-26T13:01:42.854Z,11.20
2019-06-26T13:04:12.945Z,11.80
2019-06-26T13:06:43.297Z,10.95
2019-06-26T13:09:13.427Z,10.78
2019-06-26T13:11:43.420Z,10.82
2019-06-26T13:14:13.487Z,10.80
2019-06-26T13:16:43.694Z,11.35
2019-06-26T13:19:13.793Z,10.75
2019-06-26T13:21:43.903Z,11.68
2019-06-26T13:24:14.345Z,10.75
2019-06-26T13:26:44.486Z,11.05
2019-06-26T13:29:14.609Z,11.30
2019-06-26T13:31:44.751Z,9.93
2019-06-26T13:34:14.889Z,10.65
2019-06-26T13:36:44.965Z,10.55
2019-06-26T13:39:15.099Z,11.35
2019-06-26T13:41:45.174Z,10.50
2019-06-26T13:44:15.173Z,10.90
2019-06-26T13:46:45.260Z,11.63
2019-06-26T13:49:16.601Z,10.98
2019-06-26T13:51:46.901Z,11.12
2019-06-26T13:54:16.909Z,11.88
2019-06-26T13:56:46.981Z,10.90
2019-06-26T13:59:17.085Z,12.00
2019-06-26T14:01:47.225Z,11.25
2019-06-26T14:04:17.781Z,11.73
2019-06-26T14:06:48.124Z,11.22
2019-06-26T14:09:18.109Z,11.18
2019-06-26T14:11:48.265Z,10.68
2019-06-26T14:14:18.322Z,10.00
2019-06-26T14:16:48.452Z,10.78
2019-06-26T14:19:18.554Z,10.88
2019-06-26T14:21:48.619Z,10.23
2019-06-26T14:24:18.622Z,11.63
2019-06-26T14:26:48.752Z,10.50
2019-06-26T14:29:21.261Z,10.78
2019-06-26T14:31:50.644Z,11.97
2019-06-26T14:34:20.736Z,10.15
2019-06-26T14:36:50.885Z,10.93
2019-06-26T14:39:21.099Z,10.72
2019-06-26T14:41:51.739Z,11.05
2019-06-26T14:44:21.810Z,11.12
2019-06-26T14:46:51.938Z,12.00
2019-06-26T14:49:22.078Z,12.15
2019-06-26T14:51:52.192Z,11.55
2019-06-26T14:54:22.382Z,11.28
2019-06-26T14:56:52.444Z,11.60
2019-06-26T14:59:22.511Z,12.18
2019-06-26T15:01:52.597Z,12.58
2019-06-26T15:04:22.660Z,12.40
2019-06-26T15:06:52.749Z,12.45
2019-06-26T15:09:24.208Z,11.45
2019-06-26T15:11:54.353Z,12.28
2019-06-26T15:14:24.768Z,13.28
2019-06-26T15:16:54.842Z,12.05
2019-06-26T15:19:25.982Z,14.25
2019-06-26T15:21:58.650Z,11.75
2019-06-26T15:24:27.837Z,11.78
2019-06-26T15:26:57.903Z,12.50
2019-06-26T15:29:27.999Z,12.60
2019-06-26T15:31:58.215Z,12.53
2019-06-26T15:34:28.328Z,11.70
2019-06-26T15:36:58.791Z,12.73
2019-06-26T15:39:28.890Z,11.55
2019-06-26T15:41:58.892Z,12.33
2019-06-26T15:44:28.958Z,12.07
2019-06-26T15:46:58.969Z,12.88
2019-06-26T15:49:28.961Z,12.78
2019-06-26T15:52:14.138Z,11.97
2019-06-26T15:54:31.077Z,11.20
2019-06-26T15:57:01.127Z,12.20
2019-06-26T15:59:31.322Z,12.47
2019-06-26T16:02:01.648Z,12.60
2019-06-26T16:04:35.114Z,12.03
2019-06-26T16:07:04.040Z,12.17
2019-06-26T16:09:36.415Z,12.63
2019-06-26T16:12:06.573Z,11.73
2019-06-26T16:14:36.631Z,12.47
2019-06-26T16:17:20.121Z,12.68
2019-06-26T16:19:50.233Z,12.00
2019-06-26T16:22:31.806Z,12.40
2019-06-26T16:24:52.014Z,13.43
2019-06-26T16:27:22.087Z,12.95
2019-06-26T16:29:52.284Z,11.65
2019-06-26T16:32:22.279Z,11.57
2019-06-26T16:34:52.409Z,12.28
2019-06-26T16:37:22.856Z,11.95
2019-06-26T16:39:53.126Z,12.15
2019-06-26T16:42:23.127Z,11.80
2019-06-26T16:44:53.271Z,11.68
2019-06-26T16:47:23.285Z,11.57
2019-06-26T16:49:53.363Z,12.07
2019-06-26T16:52:23.361Z,12.95
2019-06-26T16:54:53.615Z,11.93
2019-06-26T16:57:23.953Z,12.90
2019-06-26T17:00:08.535Z,11.97
2019-06-26T17:02:25.728Z,11.12
2019-06-26T17:04:57.849Z,12.03
2019-06-26T17:07:27.932Z,11.90
2019-06-26T17:09:57.998Z,12.13
2019-06-26T17:12:28.426Z,11.60
2019-06-26T17:14:58.491Z,13.08
2019-06-26T17:17:28.620Z,11.43
2019-06-26T17:19:58.697Z,11.20
2019-06-26T17:22:28.910Z,11.75
2019-06-26T17:24:59.121Z,12.35
2019-06-26T17:27:29.389Z,11.88
2019-06-26T17:29:59.503Z,11.55
2019-06-26T17:32:29.772Z,12.13
2019-06-26T17:35:00.154Z,11.65
2019-06-26T17:37:30.194Z,11.60
2019-06-26T17:40:00.345Z,11.65
2019-06-26T17:42:30.448Z,11.50
2019-06-26T17:45:00.533Z,11.40
2019-06-26T17:47:30.685Z,11.55
2019-06-26T17:50:00.815Z,12.25
2019-06-26T17:52:34.570Z,11.95
2019-06-26T17:55:02.812Z,11.85
2019-06-26T17:57:32.944Z,11.48
2019-06-26T18:00:03.883Z,12.10
2019-06-26T18:02:34.036Z,10.85
2019-06-26T18:05:04.669Z,11.53
2019-06-26T18:07:34.801Z,12.28
2019-06-26T18:10:07.021Z,11.50
2019-06-26T18:12:37.088Z,11.50
2019-06-26T18:15:07.999Z,11.88
2019-06-26T18:17:38.555Z,10.80
2019-06-26T18:20:09.947Z,11.10
2019-06-26T18:22:40.310Z,11.50
2019-06-26T18:25:10.851Z,11.60
2019-06-26T18:27:41.102Z,11.33
2019-06-26T18:30:11.431Z,11.38
2019-06-26T18:32:41.566Z,11.57
2019-06-26T18:35:11.975Z,11.83
2019-06-26T18:37:42.448Z,12.45
2019-06-26T18:40:13.056Z,12.13
2019-06-26T18:43:02.463Z,11.83
2019-06-26T18:45:32.597Z,12.60
2019-06-26T18:48:02.739Z,11.83
2019-06-26T18:50:32.869Z,13.38
2019-06-26T18:53:03.022Z,13.18
2019-06-26T18:55:33.094Z,12.10
2019-06-26T18:58:03.576Z,12.07
2019-06-26T19:00:33.712Z,13.10
2019-06-26T19:03:03.788Z,12.33
2019-06-26T19:05:34.248Z,12.78
2019-06-26T19:08:04.455Z,12.45
2019-06-26T19:10:34.605Z,13.00
2019-06-26T19:13:04.753Z,11.53
2019-06-26T19:15:34.904Z,12.13
2019-06-26T19:18:05.136Z,12.18
2019-06-26T19:20:35.281Z,12.82
2019-06-26T19:23:05.438Z,12.60
2019-06-26T19:25:35.506Z,12.35
2019-06-26T19:28:05.669Z,11.93
2019-06-26T19:30:36.861Z,12.33
2019-06-26T19:33:07.036Z,12.75
2019-06-26T19:35:37.105Z,12.98
2019-06-26T19:38:07.541Z,12.82
2019-06-26T19:40:37.563Z,13.13
2019-06-26T19:43:10.841Z,12.33
2019-06-26T19:45:39.456Z,12.65
2019-06-26T19:48:09.547Z,12.28
2019-06-26T19:50:39.594Z,11.97
2019-06-26T19:53:09.664Z,13.18
2019-06-26T19:55:39.774Z,12.00
2019-06-26T19:58:09.811Z,13.00
2019-06-26T20:00:39.942Z,12.23
2019-06-26T20:03:10.085Z,13.60
2019-06-26T20:05:40.161Z,13.30
2019-06-26T20:08:10.153Z,13.05
2019-06-26T20:10:40.390Z,11.83
2019-06-26T20:13:10.739Z,12.78
2019-06-26T20:15:41.025Z,12.60
2019-06-26T20:18:11.624Z,12.05
2019-06-26T20:20:41.718Z,12.37
2019-06-26T20:23:11.793Z,12.98
2019-06-26T20:25:41.901Z,12.28
2019-06-26T20:28:12.009Z,13.45
2019-06-26T20:30:42.046Z,12.60
2019-06-26T20:33:12.048Z,12.33
2019-06-26T20:35:42.254Z,12.78
2019-06-26T20:38:12.205Z,12.30
2019-06-26T20:40:45.642Z,11.95
2019-06-26T20:43:14.051Z,12.30
2019-06-26T20:45:44.273Z,11.53
2019-06-26T20:48:14.288Z,12.98
2019-06-26T20:50:45.535Z,12.73
2019-06-26T20:53:15.573Z,12.28
2019-06-26T20:55:45.641Z,13.30
2019-06-26T20:58:15.719Z,12.30
2019-06-26T21:00:46.012Z,12.53
2019-06-26T21:03:16.747Z,12.78
2019-06-26T21:05:46.768Z,12.03
2019-06-26T21:08:17.091Z,13.10
2019-06-26T21:10:48.169Z,12.85
2019-06-26T21:13:18.502Z,12.15
2019-06-26T21:15:50.761Z,12.28
2019-06-26T21:18:20.725Z,13.87
2019-06-26T21:20:50.866Z,12.85
2019-06-26T21:23:23.647Z,12.28
2019-06-26T21:25:52.717Z,12.00
2019-06-26T21:28:22.730Z,12.68
2019-06-26T21:30:52.797Z,12.55
2019-06-26T21:33:22.870Z,12.30
2019-06-26T21:35:52.866Z,13.03
2019-06-26T21:38:23.149Z,11.97
2019-06-26T21:40:54.309Z,12.13
2019-06-26T21:43:24.783Z,12.18
2019-06-26T21:45:54.931Z,12.68
2019-06-26T21:48:25.126Z,12.93
2019-06-26T21:50:55.261Z,12.53
2019-06-26T21:53:25.511Z,13.13
2019-06-26T21:56:20.407Z,11.78
2019-06-26T21:59:08.491Z,11.65
2019-06-26T22:01:56.617Z,12.55
2019-06-26T22:04:44.848Z,12.23
2019-06-26T22:07:33.060Z,11.63
2019-06-26T22:10:16.830Z,13.03
2019-06-26T22:12:47.257Z,11.93
2019-06-26T22:15:18.033Z,13.00
2019-06-26T22:17:48.209Z,12.98
2019-06-26T22:20:18.521Z,12.33
2019-06-26T22:22:48.877Z,12.33
2019-06-26T22:25:19.107Z,12.63
2019-06-26T22:27:49.162Z,11.68
2019-06-26T22:30:19.609Z,12.60
2019-06-26T22:32:49.812Z,11.75
2019-06-26T22:35:19.945Z,11.90
2019-06-26T22:37:50.095Z,12.13
2019-06-26T22:40:20.618Z,11.90
2019-06-26T22:42:50.766Z,12.37
2019-06-26T22:45:21.954Z,13.45
2019-06-26T22:47:52.108Z,11.85
2019-06-26T22:50:22.241Z,12.55
2019-06-26T22:52:53.264Z,11.35
2019-06-26T22:55:23.405Z,12.85
2019-06-26T22:57:53.549Z,12.05
2019-06-26T23:00:24.012Z,11.22
2019-06-26T23:02:54.156Z,11.73
2019-06-26T23:05:24.217Z,12.15
2019-06-26T23:07:54.685Z,11.40
2019-06-26T23:10:24.826Z,11.08
2019-06-26T23:12:54.891Z,11.68
2019-06-26T23:15:25.103Z,11.78
2019-06-26T23:17:55.719Z,11.22
2019-06-26T23:20:25.804Z,11.48
2019-06-26T23:22:55.936Z,11.33
2019-06-26T23:25:26.115Z,11.40
2019-06-26T23:28:15.725Z,11.38
2019-06-26T23:30:45.864Z,9.88
2019-06-26T23:33:15.942Z,10.00
2019-06-26T23:35:45.938Z,10.70
2019-06-26T23:38:16.016Z,10.13
2019-06-26T23:40:46.010Z,11.12
2019-06-26T23:43:16.072Z,10.85
2019-06-26T23:45:46.218Z,10.80
2019-06-26T23:48:16.372Z,10.15
2019-06-26T23:50:46.598Z,9.80
2019-06-26T23:53:16.708Z,9.90
2019-06-26T23:55:46.773Z,9.98
2019-06-26T23:58:16.832Z,10.80
